Port Loring, Canada
Current Conditions -  °F | °C
As of 3:00 PM on Monday 22 Dec 2014 (Local Time) from CYYB Reporting Station
Overcast Overcast  
Wind Chill: 10°   Ceiling: 1200
Heat Index: 21°   Visibility: 10mi
Dew Point: 21°   Wind: 10mph
Humidity: 100%   Direction: 100°E
Pressure: 30.12"   Gusts: NA
Location:  45.92°N, 79.98°W
Report Text: CYYB 222000Z 10009KT 10SM OVC012 M06/M06 A3012 RMK ST8 SLP221
Loading
Personal Weather Stations






























Interactive Weather Map New forecast layout! Learn more

10-Day Weather Forecast

Advertisements
Track Severe Weather on mobile